sensor_id;sensor_type;location;lat;lon;timestamp;P1;durP1;ratioP1;P2;durP2;ratioP2
48941;SDS011;35340;52.378;4.648;2023-02-26T00:01:14;3.65;;;1.95;;
48941;SDS011;35340;52.378;4.648;2023-02-26T00:03:42;6.50;;;2.03;;
48941;SDS011;35340;52.378;4.648;2023-02-26T00:06:07;6.35;;;2.30;;
48941;SDS011;35340;52.378;4.648;2023-02-26T00:08:34;4.68;;;2.10;;
48941;SDS011;35340;52.378;4.648;2023-02-26T00:10:59;4.50;;;2.20;;
48941;SDS011;35340;52.378;4.648;2023-02-26T00:13:28;4.80;;;2.20;;
48941;SDS011;35340;52.378;4.648;2023-02-26T00:16:00;5.97;;;2.00;;
48941;SDS011;35340;52.378;4.648;2023-02-26T00:18:26;4.28;;;2.05;;
48941;SDS011;35340;52.378;4.648;2023-02-26T00:20:52;4.00;;;2.10;;
48941;SDS011;35340;52.378;4.648;2023-02-26T00:23:18;3.88;;;2.05;;
48941;SDS011;35340;52.378;4.648;2023-02-26T00:25:44;3.35;;;1.80;;
48941;SDS011;35340;52.378;4.648;2023-02-26T00:28:10;4.10;;;2.17;;
48941;SDS011;35340;52.378;4.648;2023-02-26T00:30:35;3.85;;;1.75;;
48941;SDS011;35340;52.378;4.648;2023-02-26T00:33:01;4.40;;;2.05;;
48941;SDS011;35340;52.378;4.648;2023-02-26T00:35:27;3.70;;;2.10;;
48941;SDS011;35340;52.378;4.648;2023-02-26T00:37:57;4.85;;;2.05;;
48941;SDS011;35340;52.378;4.648;2023-02-26T00:43:17;4.35;;;1.88;;
48941;SDS011;35340;52.378;4.648;2023-02-26T00:48:39;3.72;;;1.77;;
48941;SDS011;35340;52.378;4.648;2023-02-26T00:51:22;5.50;;;1.95;;
48941;SDS011;35340;52.378;4.648;2023-02-26T00:54:16;2.92;;;1.45;;
48941;SDS011;35340;52.378;4.648;2023-02-26T00:56:45;3.45;;;1.60;;
48941;SDS011;35340;52.378;4.648;2023-02-26T00:59:11;3.83;;;1.60;;
48941;SDS011;35340;52.378;4.648;2023-02-26T01:01:36;3.63;;;1.73;;
48941;SDS011;35340;52.378;4.648;2023-02-26T01:04:01;2.63;;;1.60;;
48941;SDS011;35340;52.378;4.648;2023-02-26T01:06:28;2.67;;;1.60;;
48941;SDS011;35340;52.378;4.648;2023-02-26T01:11:40;4.35;;;1.45;;
48941;SDS011;35340;52.378;4.648;2023-02-26T01:14:05;3.15;;;1.55;;
48941;SDS011;35340;52.378;4.648;2023-02-26T01:16:33;4.00;;;1.42;;
48941;SDS011;35340;52.378;4.648;2023-02-26T01:21:52;2.83;;;1.45;;
48941;SDS011;35340;52.378;4.648;2023-02-26T01:24:24;2.83;;;1.60;;
48941;SDS011;35340;52.378;4.648;2023-02-26T01:26:51;3.35;;;1.60;;
48941;SDS011;35340;52.378;4.648;2023-02-26T01:29:16;3.05;;;1.42;;
48941;SDS011;35340;52.378;4.648;2023-02-26T01:31:49;2.78;;;1.50;;
48941;SDS011;35340;52.378;4.648;2023-02-26T01:42:37;2.80;;;1.27;;
48941;SDS011;35340;52.378;4.648;2023-02-26T01:45:10;2.72;;;1.20;;
48941;SDS011;35340;52.378;4.648;2023-02-26T01:47:57;2.95;;;1.50;;
48941;SDS011;35340;52.378;4.648;2023-02-26T01:50:28;3.65;;;1.55;;
48941;SDS011;35340;52.378;4.648;2023-02-26T01:55:47;1.98;;;1.15;;
48941;SDS011;35340;52.378;4.648;2023-02-26T01:58:17;2.30;;;1.42;;
48941;SDS011;35340;52.378;4.648;2023-02-26T02:00:44;2.25;;;1.30;;
48941;SDS011;35340;52.378;4.648;2023-02-26T02:03:10;3.13;;;1.40;;
48941;SDS011;35340;52.378;4.648;2023-02-26T02:05:53;2.80;;;1.25;;
48941;SDS011;35340;52.378;4.648;2023-02-26T02:08:22;2.58;;;1.25;;
48941;SDS011;35340;52.378;4.648;2023-02-26T02:10:49;2.28;;;1.33;;
48941;SDS011;35340;52.378;4.648;2023-02-26T02:28:06;1.83;;;1.10;;
48941;SDS011;35340;52.378;4.648;2023-02-26T02:36:30;2.88;;;1.23;;
48941;SDS011;35340;52.378;4.648;2023-02-26T02:39:05;3.00;;;1.00;;
48941;SDS011;35340;52.378;4.648;2023-02-26T02:41:53;2.40;;;1.02;;
48941;SDS011;35340;52.378;4.648;2023-02-26T02:44:24;1.55;;;0.88;;
48941;SDS011;35340;52.378;4.648;2023-02-26T02:46:52;2.85;;;1.10;;
48941;SDS011;35340;52.378;4.648;2023-02-26T02:49:36;1.60;;;0.88;;
48941;SDS011;35340;52.378;4.648;2023-02-26T02:52:10;2.22;;;1.02;;
48941;SDS011;35340;52.378;4.648;2023-02-26T02:54:50;1.55;;;1.00;;
48941;SDS011;35340;52.378;4.648;2023-02-26T02:57:22;2.35;;;1.10;;
48941;SDS011;35340;52.378;4.648;2023-02-26T03:00:07;2.53;;;1.00;;
48941;SDS011;35340;52.378;4.648;2023-02-26T03:05:12;1.80;;;0.93;;
48941;SDS011;35340;52.378;4.648;2023-02-26T03:07:47;1.20;;;0.80;;
48941;SDS011;35340;52.378;4.648;2023-02-26T03:10:18;3.25;;;0.90;;
48941;SDS011;35340;52.378;4.648;2023-02-26T03:12:43;2.33;;;1.00;;
48941;SDS011;35340;52.378;4.648;2023-02-26T03:15:09;2.22;;;0.88;;
48941;SDS011;35340;52.378;4.648;2023-02-26T03:17:38;1.90;;;0.80;;
48941;SDS011;35340;52.378;4.648;2023-02-26T03:25:28;1.77;;;0.93;;
48941;SDS011;35340;52.378;4.648;2023-02-26T03:28:07;4.35;;;0.90;;
48941;SDS011;35340;52.378;4.648;2023-02-26T03:30:45;2.92;;;0.90;;
48941;SDS011;35340;52.378;4.648;2023-02-26T03:33:21;1.73;;;0.90;;
48941;SDS011;35340;52.378;4.648;2023-02-26T03:38:46;2.33;;;1.00;;
48941;SDS011;35340;52.378;4.648;2023-02-26T03:41:29;1.88;;;0.80;;
48941;SDS011;35340;52.378;4.648;2023-02-26T03:44:04;2.25;;;0.90;;
48941;SDS011;35340;52.378;4.648;2023-02-26T03:46:43;3.05;;;1.05;;
48941;SDS011;35340;52.378;4.648;2023-02-26T03:49:14;2.08;;;1.05;;
48941;SDS011;35340;52.378;4.648;2023-02-26T03:51:45;2.27;;;0.90;;
48941;SDS011;35340;52.378;4.648;2023-02-26T03:54:17;1.65;;;0.80;;
48941;SDS011;35340;52.378;4.648;2023-02-26T03:56:46;1.73;;;0.80;;
48941;SDS011;35340;52.378;4.648;2023-02-26T03:59:13;2.22;;;0.90;;
48941;SDS011;35340;52.378;4.648;2023-02-26T04:01:45;1.60;;;0.80;;
48941;SDS011;35340;52.378;4.648;2023-02-26T04:07:15;1.67;;;0.80;;
48941;SDS011;35340;52.378;4.648;2023-02-26T04:09:43;1.80;;;0.80;;
48941;SDS011;35340;52.378;4.648;2023-02-26T04:12:10;1.98;;;0.85;;
48941;SDS011;35340;52.378;4.648;2023-02-26T04:14:37;2.20;;;1.00;;
48941;SDS011;35340;52.378;4.648;2023-02-26T04:17:03;2.40;;;0.90;;
48941;SDS011;35340;52.378;4.648;2023-02-26T04:19:29;1.50;;;0.70;;
48941;SDS011;35340;52.378;4.648;2023-02-26T04:21:54;2.42;;;0.98;;
48941;SDS011;35340;52.378;4.648;2023-02-26T04:24:20;3.00;;;0.90;;
48941;SDS011;35340;52.378;4.648;2023-02-26T04:26:45;1.50;;;0.70;;
48941;SDS011;35340;52.378;4.648;2023-02-26T04:29:11;2.03;;;0.80;;
48941;SDS011;35340;52.378;4.648;2023-02-26T04:31:36;1.83;;;0.75;;
48941;SDS011;35340;52.378;4.648;2023-02-26T04:34:02;2.00;;;0.75;;
48941;SDS011;35340;52.378;4.648;2023-02-26T04:36:27;3.45;;;0.80;;
48941;SDS011;35340;52.378;4.648;2023-02-26T04:38:53;1.80;;;0.95;;
48941;SDS011;35340;52.378;4.648;2023-02-26T04:41:18;3.47;;;0.88;;
48941;SDS011;35340;52.378;4.648;2023-02-26T04:43:44;1.25;;;0.60;;
48941;SDS011;35340;52.378;4.648;2023-02-26T04:46:09;2.22;;;0.70;;
48941;SDS011;35340;52.378;4.648;2023-02-26T04:48:35;1.52;;;0.80;;
48941;SDS011;35340;52.378;4.648;2023-02-26T04:51:00;2.25;;;0.80;;
48941;SDS011;35340;52.378;4.648;2023-02-26T04:53:26;1.40;;;0.80;;
48941;SDS011;35340;52.378;4.648;2023-02-26T04:55:51;2.47;;;0.90;;
48941;SDS011;35340;52.378;4.648;2023-02-26T04:58:16;1.75;;;0.80;;
48941;SDS011;35340;52.378;4.648;2023-02-26T05:00:42;1.60;;;0.70;;
48941;SDS011;35340;52.378;4.648;2023-02-26T05:03:07;2.10;;;0.80;;
48941;SDS011;35340;52.378;4.648;2023-02-26T05:05:34;1.45;;;0.75;;
48941;SDS011;35340;52.378;4.648;2023-02-26T05:07:59;1.63;;;0.60;;
48941;SDS011;35340;52.378;4.648;2023-02-26T05:10:25;1.38;;;0.70;;
48941;SDS011;35340;52.378;4.648;2023-02-26T05:12:51;1.00;;;0.60;;
48941;SDS011;35340;52.378;4.648;2023-02-26T05:15:16;1.73;;;0.77;;
48941;SDS011;35340;52.378;4.648;2023-02-26T05:17:42;1.58;;;0.65;;
48941;SDS011;35340;52.378;4.648;2023-02-26T05:20:08;1.50;;;0.73;;
48941;SDS011;35340;52.378;4.648;2023-02-26T05:22:34;2.60;;;0.77;;
48941;SDS011;35340;52.378;4.648;2023-02-26T05:25:00;1.63;;;0.68;;
48941;SDS011;35340;52.378;4.648;2023-02-26T05:27:26;2.70;;;0.73;;
48941;SDS011;35340;52.378;4.648;2023-02-26T05:29:51;1.10;;;0.60;;
48941;SDS011;35340;52.378;4.648;2023-02-26T05:32:17;1.45;;;0.80;;
48941;SDS011;35340;52.378;4.648;2023-02-26T05:34:43;1.13;;;0.63;;
48941;SDS011;35340;52.378;4.648;2023-02-26T05:37:08;3.28;;;0.60;;
48941;SDS011;35340;52.378;4.648;2023-02-26T05:39:33;2.13;;;0.80;;
48941;SDS011;35340;52.378;4.648;2023-02-26T05:41:59;1.40;;;0.55;;
48941;SDS011;35340;52.378;4.648;2023-02-26T05:44:24;1.67;;;0.65;;
48941;SDS011;35340;52.378;4.648;2023-02-26T05:46:50;0.90;;;0.50;;
48941;SDS011;35340;52.378;4.648;2023-02-26T05:49:15;2.20;;;0.70;;
48941;SDS011;35340;52.378;4.648;2023-02-26T05:51:41;1.10;;;0.60;;
48941;SDS011;35340;52.378;4.648;2023-02-26T05:54:07;1.63;;;0.60;;
48941;SDS011;35340;52.378;4.648;2023-02-26T05:56:33;1.23;;;0.60;;
48941;SDS011;35340;52.378;4.648;2023-02-26T06:04:56;0.80;;;0.50;;
48941;SDS011;35340;52.378;4.648;2023-02-26T06:07:22;1.98;;;0.40;;
48941;SDS011;35340;52.378;4.648;2023-02-26T06:09:48;1.33;;;0.50;;
48941;SDS011;35340;52.378;4.648;2023-02-26T06:12:14;0.88;;;0.50;;
48941;SDS011;35340;52.378;4.648;2023-02-26T06:14:39;1.70;;;0.50;;
48941;SDS011;35340;52.378;4.648;2023-02-26T06:17:05;1.77;;;0.50;;
48941;SDS011;35340;52.378;4.648;2023-02-26T06:19:32;1.58;;;0.70;;
48941;SDS011;35340;52.378;4.648;2023-02-26T06:21:57;2.20;;;0.60;;
48941;SDS011;35340;52.378;4.648;2023-02-26T06:24:23;1.40;;;0.52;;
48941;SDS011;35340;52.378;4.648;2023-02-26T06:26:49;1.02;;;0.50;;
48941;SDS011;35340;52.378;4.648;2023-02-26T06:29:14;1.10;;;0.50;;
48941;SDS011;35340;52.378;4.648;2023-02-26T06:31:47;0.90;;;0.50;;
48941;SDS011;35340;52.378;4.648;2023-02-26T06:34:13;1.45;;;0.50;;
48941;SDS011;35340;52.378;4.648;2023-02-26T06:36:39;0.98;;;0.43;;
48941;SDS011;35340;52.378;4.648;2023-02-26T06:39:05;0.82;;;0.52;;
48941;SDS011;35340;52.378;4.648;2023-02-26T06:41:31;0.98;;;0.50;;
48941;SDS011;35340;52.378;4.648;2023-02-26T06:43:57;1.00;;;0.50;;
48941;SDS011;35340;52.378;4.648;2023-02-26T06:46:22;0.95;;;0.40;;
48941;SDS011;35340;52.378;4.648;2023-02-26T06:48:48;1.27;;;0.57;;
48941;SDS011;35340;52.378;4.648;2023-02-26T06:51:13;0.98;;;0.60;;
48941;SDS011;35340;52.378;4.648;2023-02-26T06:53:40;1.15;;;0.50;;
48941;SDS011;35340;52.378;4.648;2023-02-26T06:56:05;1.00;;;0.50;;
48941;SDS011;35340;52.378;4.648;2023-02-26T06:58:31;0.63;;;0.50;;
48941;SDS011;35340;52.378;4.648;2023-02-26T07:00:57;1.10;;;0.50;;
48941;SDS011;35340;52.378;4.648;2023-02-26T07:03:22;0.85;;;0.47;;
48941;SDS011;35340;52.378;4.648;2023-02-26T07:05:49;1.25;;;0.50;;
48941;SDS011;35340;52.378;4.648;2023-02-26T07:08:15;0.93;;;0.50;;
48941;SDS011;35340;52.378;4.648;2023-02-26T07:10:40;1.13;;;0.50;;
48941;SDS011;35340;52.378;4.648;2023-02-26T07:13:06;0.80;;;0.50;;
48941;SDS011;35340;52.378;4.648;2023-02-26T07:15:31;1.08;;;0.60;;
48941;SDS011;35340;52.378;4.648;2023-02-26T07:17:57;1.48;;;0.60;;
48941;SDS011;35340;52.378;4.648;2023-02-26T07:20:24;0.90;;;0.47;;
48941;SDS011;35340;52.378;4.648;2023-02-26T07:22:50;1.30;;;0.60;;
48941;SDS011;35340;52.378;4.648;2023-02-26T07:25:16;1.17;;;0.50;;
48941;SDS011;35340;52.378;4.648;2023-02-26T07:27:41;1.27;;;0.50;;
48941;SDS011;35340;52.378;4.648;2023-02-26T07:30:07;1.20;;;0.40;;
48941;SDS011;35340;52.378;4.648;2023-02-26T07:32:33;1.55;;;0.57;;
48941;SDS011;35340;52.378;4.648;2023-02-26T07:34:59;0.90;;;0.40;;
48941;SDS011;35340;52.378;4.648;2023-02-26T07:37:24;1.33;;;0.60;;
48941;SDS011;35340;52.378;4.648;2023-02-26T07:39:50;1.48;;;0.50;;
48941;SDS011;35340;52.378;4.648;2023-02-26T07:58:34;4.40;;;0.77;;
48941;SDS011;35340;52.378;4.648;2023-02-26T08:01:04;5.47;;;0.82;;
48941;SDS011;35340;52.378;4.648;2023-02-26T08:07:24;1.45;;;0.60;;
48941;SDS011;35340;52.378;4.648;2023-02-26T08:09:51;0.95;;;0.52;;
48941;SDS011;35340;52.378;4.648;2023-02-26T08:12:17;1.38;;;0.60;;
48941;SDS011;35340;52.378;4.648;2023-02-26T08:14:42;2.10;;;0.70;;
48941;SDS011;35340;52.378;4.648;2023-02-26T08:17:11;2.95;;;0.60;;
48941;SDS011;35340;52.378;4.648;2023-02-26T08:20:34;4.25;;;0.70;;
48941;SDS011;35340;52.378;4.648;2023-02-26T08:23:25;2.85;;;0.93;;
48941;SDS011;35340;52.378;4.648;2023-02-26T08:26:09;6.75;;;0.75;;
48941;SDS011;35340;52.378;4.648;2023-02-26T08:28:38;2.40;;;0.60;;
48941;SDS011;35340;52.378;4.648;2023-02-26T08:34:20;1.35;;;0.50;;
48941;SDS011;35340;52.378;4.648;2023-02-26T08:36:45;2.67;;;0.60;;
48941;SDS011;35340;52.378;4.648;2023-02-26T08:39:11;1.77;;;0.60;;
48941;SDS011;35340;52.378;4.648;2023-02-26T08:41:36;2.33;;;0.50;;
48941;SDS011;35340;52.378;4.648;2023-02-26T08:44:06;1.77;;;0.55;;
48941;SDS011;35340;52.378;4.648;2023-02-26T08:46:32;4.90;;;0.70;;
48941;SDS011;35340;52.378;4.648;2023-02-26T08:48:58;4.18;;;0.80;;
48941;SDS011;35340;52.378;4.648;2023-02-26T08:54:47;4.82;;;0.70;;
48941;SDS011;35340;52.378;4.648;2023-02-26T08:59:59;2.33;;;0.60;;
48941;SDS011;35340;52.378;4.648;2023-02-26T09:06:04;3.97;;;0.70;;
48941;SDS011;35340;52.378;4.648;2023-02-26T09:09:10;2.63;;;0.70;;
48941;SDS011;35340;52.378;4.648;2023-02-26T09:21:04;2.97;;;0.60;;
48941;SDS011;35340;52.378;4.648;2023-02-26T09:23:32;3.83;;;0.50;;
48941;SDS011;35340;52.378;4.648;2023-02-26T09:29:12;5.13;;;0.80;;
48941;SDS011;35340;52.378;4.648;2023-02-26T09:31:41;4.53;;;0.60;;
48941;SDS011;35340;52.378;4.648;2023-02-26T09:34:06;2.13;;;0.70;;
48941;SDS011;35340;52.378;4.648;2023-02-26T09:36:32;4.57;;;0.70;;
48941;SDS011;35340;52.378;4.648;2023-02-26T09:38:57;1.85;;;0.70;;
48941;SDS011;35340;52.378;4.648;2023-02-26T09:50:36;4.88;;;1.40;;
48941;SDS011;35340;52.378;4.648;2023-02-26T09:53:38;9.52;;;2.58;;
48941;SDS011;35340;52.378;4.648;2023-02-26T09:56:23;7.93;;;1.95;;
48941;SDS011;35340;52.378;4.648;2023-02-26T09:59:08;8.40;;;1.88;;
48941;SDS011;35340;52.378;4.648;2023-02-26T10:01:37;10.20;;;1.80;;
48941;SDS011;35340;52.378;4.648;2023-02-26T10:07:27;5.05;;;1.50;;
48941;SDS011;35340;52.378;4.648;2023-02-26T10:13:57;6.75;;;1.50;;
48941;SDS011;35340;52.378;4.648;2023-02-26T10:16:10;7.10;;;1.35;;
48941;SDS011;35340;52.378;4.648;2023-02-26T10:18:46;6.80;;;1.15;;
48941;SDS011;35340;52.378;4.648;2023-02-26T10:21:21;7.43;;;1.42;;
48941;SDS011;35340;52.378;4.648;2023-02-26T10:23:55;4.10;;;1.10;;
48941;SDS011;35340;52.378;4.648;2023-02-26T10:26:27;9.25;;;1.30;;
48941;SDS011;35340;52.378;4.648;2023-02-26T10:34:51;8.80;;;1.13;;
48941;SDS011;35340;52.378;4.648;2023-02-26T10:37:19;4.90;;;1.40;;
48941;SDS011;35340;52.378;4.648;2023-02-26T10:40:03;7.22;;;1.50;;
48941;SDS011;35340;52.378;4.648;2023-02-26T10:42:54;4.05;;;1.08;;
48941;SDS011;35340;52.378;4.648;2023-02-26T10:45:39;3.83;;;1.00;;
48941;SDS011;35340;52.378;4.648;2023-02-26T10:51:00;4.40;;;1.10;;
48941;SDS011;35340;52.378;4.648;2023-02-26T10:53:42;5.82;;;1.05;;
48941;SDS011;35340;52.378;4.648;2023-02-26T10:58:44;3.83;;;1.17;;
48941;SDS011;35340;52.378;4.648;2023-02-26T11:01:17;2.22;;;0.80;;
48941;SDS011;35340;52.378;4.648;2023-02-26T11:03:48;3.60;;;0.90;;
48941;SDS011;35340;52.378;4.648;2023-02-26T11:06:20;2.72;;;0.90;;
48941;SDS011;35340;52.378;4.648;2023-02-26T11:08:55;2.80;;;0.90;;
48941;SDS011;35340;52.378;4.648;2023-02-26T11:14:13;2.45;;;0.90;;
48941;SDS011;35340;52.378;4.648;2023-02-26T11:16:52;3.28;;;0.85;;
48941;SDS011;35340;52.378;4.648;2023-02-26T11:19:27;4.15;;;0.80;;
48941;SDS011;35340;52.378;4.648;2023-02-26T11:21:55;1.45;;;0.73;;
48941;SDS011;35340;52.378;4.648;2023-02-26T11:24:55;2.30;;;0.82;;
48941;SDS011;35340;52.378;4.648;2023-02-26T11:27:17;4.03;;;0.77;;
48941;SDS011;35340;52.378;4.648;2023-02-26T11:30:04;2.03;;;0.90;;
48941;SDS011;35340;52.378;4.648;2023-02-26T11:32:38;1.45;;;0.70;;
48941;SDS011;35340;52.378;4.648;2023-02-26T11:35:07;1.83;;;0.70;;
48941;SDS011;35340;52.378;4.648;2023-02-26T11:37:34;2.90;;;0.85;;
48941;SDS011;35340;52.378;4.648;2023-02-26T11:40:04;3.20;;;0.80;;
48941;SDS011;35340;52.378;4.648;2023-02-26T11:42:39;3.00;;;0.80;;
48941;SDS011;35340;52.378;4.648;2023-02-26T11:45:13;1.67;;;0.82;;
48941;SDS011;35340;52.378;4.648;2023-02-26T11:47:42;2.00;;;0.80;;
48941;SDS011;35340;52.378;4.648;2023-02-26T11:50:18;2.45;;;0.80;;
48941;SDS011;35340;52.378;4.648;2023-02-26T11:52:47;1.70;;;0.90;;
48941;SDS011;35340;52.378;4.648;2023-02-26T11:55:21;1.85;;;0.85;;
48941;SDS011;35340;52.378;4.648;2023-02-26T11:57:50;2.08;;;0.70;;
48941;SDS011;35340;52.378;4.648;2023-02-26T12:00:19;2.00;;;0.85;;
48941;SDS011;35340;52.378;4.648;2023-02-26T12:02:49;1.45;;;0.65;;
48941;SDS011;35340;52.378;4.648;2023-02-26T12:05:16;2.05;;;0.80;;
48941;SDS011;35340;52.378;4.648;2023-02-26T12:07:42;1.63;;;0.85;;
48941;SDS011;35340;52.378;4.648;2023-02-26T12:10:19;1.65;;;0.60;;
48941;SDS011;35340;52.378;4.648;2023-02-26T12:15:40;1.08;;;0.57;;
48941;SDS011;35340;52.378;4.648;2023-02-26T12:18:17;1.27;;;0.45;;
48941;SDS011;35340;52.378;4.648;2023-02-26T12:26:27;1.00;;;0.52;;
48941;SDS011;35340;52.378;4.648;2023-02-26T12:39:50;1.00;;;0.50;;
48941;SDS011;35340;52.378;4.648;2023-02-26T12:42:24;1.48;;;0.63;;
48941;SDS011;35340;52.378;4.648;2023-02-26T13:01:43;1.70;;;0.60;;
48941;SDS011;35340;52.378;4.648;2023-02-26T13:13:47;0.77;;;0.50;;
48941;SDS011;35340;52.378;4.648;2023-02-26T13:18:48;0.98;;;0.63;;
48941;SDS011;35340;52.378;4.648;2023-02-26T13:21:26;1.13;;;0.50;;
48941;SDS011;35340;52.378;4.648;2023-02-26T13:23:56;0.85;;;0.50;;
48941;SDS011;35340;52.378;4.648;2023-02-26T13:26:41;0.93;;;0.50;;
48941;SDS011;35340;52.378;4.648;2023-02-26T13:29:12;1.10;;;0.40;;
48941;SDS011;35340;52.378;4.648;2023-02-26T13:31:46;1.33;;;0.60;;
48941;SDS011;35340;52.378;4.648;2023-02-26T13:34:28;1.58;;;0.50;;
48941;SDS011;35340;52.378;4.648;2023-02-26T13:36:55;1.80;;;0.60;;
48941;SDS011;35340;52.378;4.648;2023-02-26T13:45:01;1.00;;;0.35;;
48941;SDS011;35340;52.378;4.648;2023-02-26T13:55:47;2.10;;;0.40;;
48941;SDS011;35340;52.378;4.648;2023-02-26T14:05:55;0.60;;;0.32;;
48941;SDS011;35340;52.378;4.648;2023-02-26T14:11:04;1.25;;;0.68;;
48941;SDS011;35340;52.378;4.648;2023-02-26T14:13:41;1.55;;;0.60;;
48941;SDS011;35340;52.378;4.648;2023-02-26T14:16:27;0.77;;;0.50;;
48941;SDS011;35340;52.378;4.648;2023-02-26T14:29:37;0.70;;;0.50;;
48941;SDS011;35340;52.378;4.648;2023-02-26T14:32:15;0.98;;;0.50;;
48941;SDS011;35340;52.378;4.648;2023-02-26T14:34:52;1.42;;;0.63;;
48941;SDS011;35340;52.378;4.648;2023-02-26T14:37:22;0.50;;;0.43;;
48941;SDS011;35340;52.378;4.648;2023-02-26T14:39:57;1.17;;;0.50;;
48941;SDS011;35340;52.378;4.648;2023-02-26T14:47:53;0.70;;;0.40;;
48941;SDS011;35340;52.378;4.648;2023-02-26T14:50:21;1.30;;;0.60;;
48941;SDS011;35340;52.378;4.648;2023-02-26T14:55:39;1.27;;;0.50;;
48941;SDS011;35340;52.378;4.648;2023-02-26T15:17:46;0.55;;;0.40;;
48941;SDS011;35340;52.378;4.648;2023-02-26T15:20:35;0.80;;;0.50;;
48941;SDS011;35340;52.378;4.648;2023-02-26T15:23:37;1.02;;;0.43;;
48941;SDS011;35340;52.378;4.648;2023-02-26T15:26:32;1.55;;;0.60;;
48941;SDS011;35340;52.378;4.648;2023-02-26T15:29:01;0.70;;;0.40;;
48941;SDS011;35340;52.378;4.648;2023-02-26T15:31:33;1.73;;;0.50;;
48941;SDS011;35340;52.378;4.648;2023-02-26T15:34:11;1.45;;;0.80;;
48941;SDS011;35340;52.378;4.648;2023-02-26T15:36:39;4.43;;;0.77;;
48941;SDS011;35340;52.378;4.648;2023-02-26T15:39:11;4.57;;;0.70;;
48941;SDS011;35340;52.378;4.648;2023-02-26T15:41:40;2.85;;;0.60;;
48941;SDS011;35340;52.378;4.648;2023-02-26T15:44:08;3.35;;;0.60;;
48941;SDS011;35340;52.378;4.648;2023-02-26T15:46:40;3.58;;;0.60;;
48941;SDS011;35340;52.378;4.648;2023-02-26T15:56:40;6.03;;;0.85;;
48941;SDS011;35340;52.378;4.648;2023-02-26T15:59:53;4.03;;;1.10;;
48941;SDS011;35340;52.378;4.648;2023-02-26T16:02:35;3.13;;;1.00;;
48941;SDS011;35340;52.378;4.648;2023-02-26T16:05:09;11.07;;;1.45;;
48941;SDS011;35340;52.378;4.648;2023-02-26T16:07:40;8.20;;;1.63;;
48941;SDS011;35340;52.378;4.648;2023-02-26T16:10:14;13.40;;;1.80;;
48941;SDS011;35340;52.378;4.648;2023-02-26T16:21:54;10.95;;;2.10;;
48941;SDS011;35340;52.378;4.648;2023-02-26T16:24:21;13.65;;;2.05;;
48941;SDS011;35340;52.378;4.648;2023-02-26T16:26:58;10.88;;;1.80;;
48941;SDS011;35340;52.378;4.648;2023-02-26T16:29:30;12.15;;;1.77;;
48941;SDS011;35340;52.378;4.648;2023-02-26T16:31:58;11.88;;;2.00;;
48941;SDS011;35340;52.378;4.648;2023-02-26T16:37:08;10.90;;;1.92;;
48941;SDS011;35340;52.378;4.648;2023-02-26T16:42:51;8.05;;;1.40;;
48941;SDS011;35340;52.378;4.648;2023-02-26T16:48:08;10.60;;;1.45;;
48941;SDS011;35340;52.378;4.648;2023-02-26T16:50:38;10.30;;;1.80;;
48941;SDS011;35340;52.378;4.648;2023-02-26T16:55:33;5.22;;;1.40;;
48941;SDS011;35340;52.378;4.648;2023-02-26T16:58:01;7.20;;;1.60;;
48941;SDS011;35340;52.378;4.648;2023-02-26T17:00:30;5.28;;;1.50;;
48941;SDS011;35340;52.378;4.648;2023-02-26T17:03:08;7.10;;;1.70;;
48941;SDS011;35340;52.378;4.648;2023-02-26T17:05:38;6.78;;;1.45;;
48941;SDS011;35340;52.378;4.648;2023-02-26T17:11:05;6.00;;;1.55;;
48941;SDS011;35340;52.378;4.648;2023-02-26T17:13:32;6.45;;;1.48;;
48941;SDS011;35340;52.378;4.648;2023-02-26T17:16:03;6.10;;;1.50;;
48941;SDS011;35340;52.378;4.648;2023-02-26T17:18:40;6.78;;;1.40;;
48941;SDS011;35340;52.378;4.648;2023-02-26T17:21:05;4.05;;;1.40;;
48941;SDS011;35340;52.378;4.648;2023-02-26T17:23:37;8.35;;;1.70;;
48941;SDS011;35340;52.378;4.648;2023-02-26T17:26:05;5.85;;;1.50;;
48941;SDS011;35340;52.378;4.648;2023-02-26T17:28:34;3.72;;;1.33;;
48941;SDS011;35340;52.378;4.648;2023-02-26T17:31:04;5.10;;;1.20;;
48941;SDS011;35340;52.378;4.648;2023-02-26T17:33:30;5.10;;;1.50;;
48941;SDS011;35340;52.378;4.648;2023-02-26T17:35:57;6.55;;;1.80;;
48941;SDS011;35340;52.378;4.648;2023-02-26T17:38:25;4.32;;;1.45;;
48941;SDS011;35340;52.378;4.648;2023-02-26T17:40:52;4.32;;;1.60;;
48941;SDS011;35340;52.378;4.648;2023-02-26T17:43:22;7.18;;;1.25;;
48941;SDS011;35340;52.378;4.648;2023-02-26T17:45:47;2.60;;;1.17;;
48941;SDS011;35340;52.378;4.648;2023-02-26T17:48:13;5.20;;;1.50;;
48941;SDS011;35340;52.378;4.648;2023-02-26T17:50:57;3.65;;;1.30;;
48941;SDS011;35340;52.378;4.648;2023-02-26T17:53:23;3.17;;;1.20;;
48941;SDS011;35340;52.378;4.648;2023-02-26T17:55:53;5.82;;;1.60;;
48941;SDS011;35340;52.378;4.648;2023-02-26T17:58:30;3.42;;;1.30;;
48941;SDS011;35340;52.378;4.648;2023-02-26T18:00:58;3.70;;;1.50;;
48941;SDS011;35340;52.378;4.648;2023-02-26T18:03:26;4.15;;;1.42;;
48941;SDS011;35340;52.378;4.648;2023-02-26T18:05:53;5.57;;;1.30;;
48941;SDS011;35340;52.378;4.648;2023-02-26T18:08:23;4.55;;;1.30;;
48941;SDS011;35340;52.378;4.648;2023-02-26T18:10:56;5.63;;;1.48;;
48941;SDS011;35340;52.378;4.648;2023-02-26T18:13:25;4.47;;;1.58;;
48941;SDS011;35340;52.378;4.648;2023-02-26T18:15:52;4.55;;;1.58;;
48941;SDS011;35340;52.378;4.648;2023-02-26T18:18:19;3.60;;;1.20;;
48941;SDS011;35340;52.378;4.648;2023-02-26T18:20:46;9.90;;;3.22;;
48941;SDS011;35340;52.378;4.648;2023-02-26T18:23:13;8.93;;;2.65;;
48941;SDS011;35340;52.378;4.648;2023-02-26T18:25:42;4.75;;;2.20;;
48941;SDS011;35340;52.378;4.648;2023-02-26T18:28:15;5.72;;;1.73;;
48941;SDS011;35340;52.378;4.648;2023-02-26T18:30:44;4.88;;;1.90;;
48941;SDS011;35340;52.378;4.648;2023-02-26T18:33:11;4.18;;;1.73;;
48941;SDS011;35340;52.378;4.648;2023-02-26T18:35:41;3.30;;;1.25;;
48941;SDS011;35340;52.378;4.648;2023-02-26T18:38:14;5.35;;;1.40;;
48941;SDS011;35340;52.378;4.648;2023-02-26T18:40:41;5.20;;;1.40;;
48941;SDS011;35340;52.378;4.648;2023-02-26T18:43:06;5.78;;;1.45;;
48941;SDS011;35340;52.378;4.648;2023-02-26T18:45:34;3.47;;;1.50;;
48941;SDS011;35340;52.378;4.648;2023-02-26T18:48:00;4.32;;;1.40;;
48941;SDS011;35340;52.378;4.648;2023-02-26T18:50:25;7.30;;;2.08;;
48941;SDS011;35340;52.378;4.648;2023-02-26T18:52:50;5.13;;;2.00;;
48941;SDS011;35340;52.378;4.648;2023-02-26T18:55:16;5.90;;;2.20;;
48941;SDS011;35340;52.378;4.648;2023-02-26T18:57:41;6.60;;;2.15;;
48941;SDS011;35340;52.378;4.648;2023-02-26T19:00:08;9.43;;;2.05;;
48941;SDS011;35340;52.378;4.648;2023-02-26T19:02:40;6.28;;;2.47;;
48941;SDS011;35340;52.378;4.648;2023-02-26T19:05:08;7.25;;;2.00;;
48941;SDS011;35340;52.378;4.648;2023-02-26T19:07:34;5.00;;;2.00;;
48941;SDS011;35340;52.378;4.648;2023-02-26T19:09:59;4.88;;;1.90;;
48941;SDS011;35340;52.378;4.648;2023-02-26T19:12:26;6.10;;;2.13;;
48941;SDS011;35340;52.378;4.648;2023-02-26T19:14:52;9.45;;;1.88;;
48941;SDS011;35340;52.378;4.648;2023-02-26T19:17:18;5.45;;;1.75;;
48941;SDS011;35340;52.378;4.648;2023-02-26T19:19:43;7.47;;;1.73;;
48941;SDS011;35340;52.378;4.648;2023-02-26T19:22:09;4.72;;;2.00;;
48941;SDS011;35340;52.378;4.648;2023-02-26T19:24:38;8.48;;;1.90;;
48941;SDS011;35340;52.378;4.648;2023-02-26T19:27:04;5.82;;;1.77;;
48941;SDS011;35340;52.378;4.648;2023-02-26T19:29:31;5.78;;;1.48;;
48941;SDS011;35340;52.378;4.648;2023-02-26T19:31:58;7.00;;;2.03;;
48941;SDS011;35340;52.378;4.648;2023-02-26T19:34:24;4.88;;;1.65;;
48941;SDS011;35340;52.378;4.648;2023-02-26T19:36:50;4.28;;;1.50;;
48941;SDS011;35340;52.378;4.648;2023-02-26T19:39:16;3.90;;;1.60;;
48941;SDS011;35340;52.378;4.648;2023-02-26T19:41:42;4.97;;;1.83;;
48941;SDS011;35340;52.378;4.648;2023-02-26T19:44:09;7.22;;;1.70;;
48941;SDS011;35340;52.378;4.648;2023-02-26T19:46:35;4.65;;;1.48;;